sensor_id;sensor_type;location;lat;lon;timestamp;temperature;humidity
22940;DHT22;11636;52.086;5.090;2023-12-28T00:00:42;10.00;99.90
22940;DHT22;11636;52.086;5.090;2023-12-28T00:03:15;10.10;99.90
22940;DHT22;11636;52.086;5.090;2023-12-28T00:05:48;10.00;99.90
22940;DHT22;11636;52.086;5.090;2023-12-28T00:08:15;10.10;99.90
22940;DHT22;11636;52.086;5.090;2023-12-28T00:10:48;10.10;99.90
22940;DHT22;11636;52.086;5.090;2023-12-28T00:13:15;10.00;99.90
22940;DHT22;11636;52.086;5.090;2023-12-28T00:15:48;10.10;99.90
22940;DHT22;11636;52.086;5.090;2023-12-28T00:18:15;10.10;99.90
22940;DHT22;11636;52.086;5.090;2023-12-28T00:20:49;10.10;99.90
22940;DHT22;11636;52.086;5.090;2023-12-28T00:23:16;10.10;99.90
22940;DHT22;11636;52.086;5.090;2023-12-28T00:25:43;10.00;99.90
22940;DHT22;11636;52.086;5.090;2023-12-28T00:28:17;10.00;99.90
22940;DHT22;11636;52.086;5.090;2023-12-28T00:30:44;9.90;99.90
22940;DHT22;11636;52.086;5.090;2023-12-28T00:33:17;9.90;99.90
22940;DHT22;11636;52.086;5.090;2023-12-28T00:35:44;9.90;99.90
22940;DHT22;11636;52.086;5.090;2023-12-28T00:38:17;9.80;99.90
22940;DHT22;11636;52.086;5.090;2023-12-28T00:40:44;9.80;99.90
22940;DHT22;11636;52.086;5.090;2023-12-28T00:43:17;9.80;99.90
22940;DHT22;11636;52.086;5.090;2023-12-28T00:45:44;9.80;99.90
22940;DHT22;11636;52.086;5.090;2023-12-28T00:48:17;9.70;99.90
22940;DHT22;11636;52.086;5.090;2023-12-28T00:50:44;9.70;99.90
22940;DHT22;11636;52.086;5.090;2023-12-28T00:53:17;9.70;99.90
22940;DHT22;11636;52.086;5.090;2023-12-28T00:55:44;9.60;99.90
22940;DHT22;11636;52.086;5.090;2023-12-28T00:58:17;9.60;99.90
22940;DHT22;11636;52.086;5.090;2023-12-28T01:00:44;9.60;99.90
22940;DHT22;11636;52.086;5.090;2023-12-28T01:03:17;9.60;99.90
22940;DHT22;11636;52.086;5.090;2023-12-28T01:05:50;9.60;99.90
22940;DHT22;11636;52.086;5.090;2023-12-28T01:08:19;9.60;99.90
22940;DHT22;11636;52.086;5.090;2023-12-28T01:10:52;9.60;99.90
22940;DHT22;11636;52.086;5.090;2023-12-28T01:13:19;9.60;99.90
22940;DHT22;11636;52.086;5.090;2023-12-28T01:15:46;9.60;99.90
22940;DHT22;11636;52.086;5.090;2023-12-28T01:18:20;9.60;99.90
22940;DHT22;11636;52.086;5.090;2023-12-28T01:20:53;9.60;99.90
22940;DHT22;11636;52.086;5.090;2023-12-28T01:23:20;9.60;99.90
22940;DHT22;11636;52.086;5.090;2023-12-28T01:25:55;9.60;99.90
22940;DHT22;11636;52.086;5.090;2023-12-28T01:28:22;9.60;99.90
22940;DHT22;11636;52.086;5.090;2023-12-28T01:30:49;9.50;99.90
22940;DHT22;11636;52.086;5.090;2023-12-28T01:33:22;9.50;99.90
22940;DHT22;11636;52.086;5.090;2023-12-28T01:35:49;9.40;99.90
22940;DHT22;11636;52.086;5.090;2023-12-28T01:38:16;9.40;99.90
22940;DHT22;11636;52.086;5.090;2023-12-28T01:40:49;9.40;99.90
22940;DHT22;11636;52.086;5.090;2023-12-28T01:43:16;9.40;99.90
22940;DHT22;11636;52.086;5.090;2023-12-28T01:45:49;9.40;99.90
22940;DHT22;11636;52.086;5.090;2023-12-28T01:48:17;9.40;99.90
22940;DHT22;11636;52.086;5.090;2023-12-28T01:50:51;9.40;99.90
22940;DHT22;11636;52.086;5.090;2023-12-28T01:53:18;9.40;99.90
22940;DHT22;11636;52.086;5.090;2023-12-28T01:55:45;9.40;99.90
22940;DHT22;11636;52.086;5.090;2023-12-28T01:58:18;9.40;99.90
22940;DHT22;11636;52.086;5.090;2023-12-28T02:00:51;9.40;99.90
22940;DHT22;11636;52.086;5.090;2023-12-28T02:03:18;9.30;99.90
22940;DHT22;11636;52.086;5.090;2023-12-28T02:05:46;9.30;99.90
22940;DHT22;11636;52.086;5.090;2023-12-28T02:08:19;9.20;99.90
22940;DHT22;11636;52.086;5.090;2023-12-28T02:10:46;9.30;99.90
22940;DHT22;11636;52.086;5.090;2023-12-28T02:13:14;9.30;99.90
22940;DHT22;11636;52.086;5.090;2023-12-28T02:15:54;9.40;99.90
22940;DHT22;11636;52.086;5.090;2023-12-28T02:18:29;9.40;99.90
22940;DHT22;11636;52.086;5.090;2023-12-28T02:21:04;9.50;99.90
22940;DHT22;11636;52.086;5.090;2023-12-28T02:23:32;9.60;99.90
22940;DHT22;11636;52.086;5.090;2023-12-28T02:26:06;9.70;99.90
22940;DHT22;11636;52.086;5.090;2023-12-28T02:28:39;9.70;99.90
22940;DHT22;11636;52.086;5.090;2023-12-28T02:31:08;9.70;99.90
22940;DHT22;11636;52.086;5.090;2023-12-28T02:33:58;9.70;99.90
22940;DHT22;11636;52.086;5.090;2023-12-28T02:36:27;9.70;99.90
22940;DHT22;11636;52.086;5.090;2023-12-28T02:39:01;9.80;99.90
22940;DHT22;11636;52.086;5.090;2023-12-28T02:41:30;9.90;99.90
22940;DHT22;11636;52.086;5.090;2023-12-28T02:44:03;9.80;99.90
22940;DHT22;11636;52.086;5.090;2023-12-28T02:46:30;9.80;99.90
22940;DHT22;11636;52.086;5.090;2023-12-28T02:48:57;9.80;99.90
22940;DHT22;11636;52.086;5.090;2023-12-28T02:51:33;9.70;99.90
22940;DHT22;11636;52.086;5.090;2023-12-28T02:53:59;9.60;99.90
22940;DHT22;11636;52.086;5.090;2023-12-28T02:56:32;9.60;99.90
22940;DHT22;11636;52.086;5.090;2023-12-28T02:58:59;9.60;99.90
22940;DHT22;11636;52.086;5.090;2023-12-28T03:01:32;9.60;99.90
22940;DHT22;11636;52.086;5.090;2023-12-28T03:03:59;9.60;99.90
22940;DHT22;11636;52.086;5.090;2023-12-28T03:06:26;9.60;99.90
22940;DHT22;11636;52.086;5.090;2023-12-28T03:08:59;9.70;99.90
22940;DHT22;11636;52.086;5.090;2023-12-28T03:11:33;9.80;99.90
22940;DHT22;11636;52.086;5.090;2023-12-28T03:14:06;9.80;99.90
22940;DHT22;11636;52.086;5.090;2023-12-28T03:16:33;9.90;99.90
22940;DHT22;11636;52.086;5.090;2023-12-28T03:19:01;9.90;99.90
22940;DHT22;11636;52.086;5.090;2023-12-28T03:21:39;9.90;99.90
22940;DHT22;11636;52.086;5.090;2023-12-28T03:24:07;9.80;99.90
22940;DHT22;11636;52.086;5.090;2023-12-28T03:26:38;9.80;99.90
22940;DHT22;11636;52.086;5.090;2023-12-28T03:29:11;9.80;99.90
22940;DHT22;11636;52.086;5.090;2023-12-28T03:31:39;9.80;99.90
22940;DHT22;11636;52.086;5.090;2023-12-28T03:34:14;9.80;99.90
22940;DHT22;11636;52.086;5.090;2023-12-28T03:36:41;9.80;99.90
22940;DHT22;11636;52.086;5.090;2023-12-28T03:39:08;9.80;99.90
22940;DHT22;11636;52.086;5.090;2023-12-28T03:41:41;9.80;99.90
22940;DHT22;11636;52.086;5.090;2023-12-28T03:44:08;9.80;99.90
22940;DHT22;11636;52.086;5.090;2023-12-28T03:46:41;9.70;99.90
22940;DHT22;11636;52.086;5.090;2023-12-28T03:49:08;9.70;99.90
22940;DHT22;11636;52.086;5.090;2023-12-28T03:51:42;9.60;99.90
22940;DHT22;11636;52.086;5.090;2023-12-28T03:54:08;9.60;99.90
22940;DHT22;11636;52.086;5.090;2023-12-28T03:56:43;9.60;99.90
22940;DHT22;11636;52.086;5.090;2023-12-28T03:59:10;9.60;99.90
22940;DHT22;11636;52.086;5.090;2023-12-28T04:01:44;9.50;99.90
22940;DHT22;11636;52.086;5.090;2023-12-28T04:04:11;9.60;99.90
22940;DHT22;11636;52.086;5.090;2023-12-28T04:06:38;9.60;99.90
22940;DHT22;11636;52.086;5.090;2023-12-28T04:09:15;9.60;99.90
22940;DHT22;11636;52.086;5.090;2023-12-28T04:11:48;9.60;99.90
22940;DHT22;11636;52.086;5.090;2023-12-28T04:14:20;9.70;99.90
22940;DHT22;11636;52.086;5.090;2023-12-28T04:16:47;9.80;99.90
22940;DHT22;11636;52.086;5.090;2023-12-28T04:19:20;9.80;99.90
22940;DHT22;11636;52.086;5.090;2023-12-28T04:21:47;9.80;99.90
22940;DHT22;11636;52.086;5.090;2023-12-28T04:24:21;9.80;99.90
22940;DHT22;11636;52.086;5.090;2023-12-28T04:26:47;9.80;99.90
22940;DHT22;11636;52.086;5.090;2023-12-28T04:29:20;9.90;99.90
22940;DHT22;11636;52.086;5.090;2023-12-28T04:31:47;9.90;99.90
22940;DHT22;11636;52.086;5.090;2023-12-28T04:34:20;10.00;99.90
22940;DHT22;11636;52.086;5.090;2023-12-28T04:36:47;10.00;99.90
22940;DHT22;11636;52.086;5.090;2023-12-28T04:39:22;10.00;99.90
22940;DHT22;11636;52.086;5.090;2023-12-28T04:41:48;10.10;99.90
22940;DHT22;11636;52.086;5.090;2023-12-28T04:44:15;10.10;99.90
22940;DHT22;11636;52.086;5.090;2023-12-28T04:46:49;10.10;99.90
22940;DHT22;11636;52.086;5.090;2023-12-28T04:49:15;10.10;99.90
22940;DHT22;11636;52.086;5.090;2023-12-28T04:51:49;10.10;99.90
22940;DHT22;11636;52.086;5.090;2023-12-28T04:54:15;10.10;99.90
22940;DHT22;11636;52.086;5.090;2023-12-28T04:56:49;10.10;99.90
22940;DHT22;11636;52.086;5.090;2023-12-28T04:59:15;10.20;99.90
22940;DHT22;11636;52.086;5.090;2023-12-28T05:01:43;10.20;99.90
22940;DHT22;11636;52.086;5.090;2023-12-28T05:04:17;10.20;99.90
22940;DHT22;11636;52.086;5.090;2023-12-28T05:06:44;10.20;99.90
22940;DHT22;11636;52.086;5.090;2023-12-28T05:09:17;10.30;99.90
22940;DHT22;11636;52.086;5.090;2023-12-28T05:11:43;10.30;99.90
22940;DHT22;11636;52.086;5.090;2023-12-28T05:14:17;10.30;99.90
22940;DHT22;11636;52.086;5.090;2023-12-28T05:16:44;10.30;99.90
22940;DHT22;11636;52.086;5.090;2023-12-28T05:19:17;10.40;99.90
22940;DHT22;11636;52.086;5.090;2023-12-28T05:21:50;10.40;99.90
22940;DHT22;11636;52.086;5.090;2023-12-28T05:24:17;10.40;99.90
22940;DHT22;11636;52.086;5.090;2023-12-28T05:26:50;10.40;99.90
22940;DHT22;11636;52.086;5.090;2023-12-28T05:29:16;10.40;99.90
22940;DHT22;11636;52.086;5.090;2023-12-28T05:31:50;10.50;99.90
22940;DHT22;11636;52.086;5.090;2023-12-28T05:34:23;10.50;99.90
22940;DHT22;11636;52.086;5.090;2023-12-28T05:36:56;10.50;99.90
22940;DHT22;11636;52.086;5.090;2023-12-28T05:39:23;10.50;99.90
22940;DHT22;11636;52.086;5.090;2023-12-28T05:41:50;10.50;99.90
22940;DHT22;11636;52.086;5.090;2023-12-28T05:44:24;10.40;99.90
22940;DHT22;11636;52.086;5.090;2023-12-28T05:46:50;10.40;99.90
22940;DHT22;11636;52.086;5.090;2023-12-28T05:49:25;10.40;99.90
22940;DHT22;11636;52.086;5.090;2023-12-28T05:51:52;10.40;99.90
22940;DHT22;11636;52.086;5.090;2023-12-28T05:54:19;10.50;99.90
22940;DHT22;11636;52.086;5.090;2023-12-28T05:56:53;10.50;99.90
22940;DHT22;11636;52.086;5.090;2023-12-28T05:59:26;10.50;99.90
22940;DHT22;11636;52.086;5.090;2023-12-28T06:01:53;10.50;99.90
22940;DHT22;11636;52.086;5.090;2023-12-28T06:04:26;10.60;99.90
22940;DHT22;11636;52.086;5.090;2023-12-28T06:06:53;10.50;99.90
22940;DHT22;11636;52.086;5.090;2023-12-28T06:09:26;10.50;99.90
22940;DHT22;11636;52.086;5.090;2023-12-28T06:11:54;10.60;99.90
22940;DHT22;11636;52.086;5.090;2023-12-28T06:14:28;10.60;99.90
22940;DHT22;11636;52.086;5.090;2023-12-28T06:16:54;10.60;99.90
22940;DHT22;11636;52.086;5.090;2023-12-28T06:19:35;10.60;99.90
22940;DHT22;11636;52.086;5.090;2023-12-28T06:22:02;10.60;99.90
22940;DHT22;11636;52.086;5.090;2023-12-28T06:24:29;10.60;99.90
22940;DHT22;11636;52.086;5.090;2023-12-28T06:27:02;10.60;99.90
22940;DHT22;11636;52.086;5.090;2023-12-28T06:29:28;10.60;99.90
22940;DHT22;11636;52.086;5.090;2023-12-28T06:32:02;10.60;99.90
22940;DHT22;11636;52.086;5.090;2023-12-28T06:34:29;10.60;99.90
22940;DHT22;11636;52.086;5.090;2023-12-28T06:37:02;10.70;99.90
22940;DHT22;11636;52.086;5.090;2023-12-28T06:39:29;10.70;99.90
22940;DHT22;11636;52.086;5.090;2023-12-28T06:42:02;10.70;99.90
22940;DHT22;11636;52.086;5.090;2023-12-28T06:44:29;10.70;99.90
22940;DHT22;11636;52.086;5.090;2023-12-28T06:47:02;10.70;99.90
22940;DHT22;11636;52.086;5.090;2023-12-28T06:49:29;10.70;99.90
22940;DHT22;11636;52.086;5.090;2023-12-28T06:51:55;10.70;99.90
22940;DHT22;11636;52.086;5.090;2023-12-28T06:54:29;10.60;99.90
22940;DHT22;11636;52.086;5.090;2023-12-28T06:56:56;10.60;99.90
22940;DHT22;11636;52.086;5.090;2023-12-28T06:59:29;10.60;99.90
22940;DHT22;11636;52.086;5.090;2023-12-28T07:01:56;10.60;99.90
22940;DHT22;11636;52.086;5.090;2023-12-28T07:04:29;10.60;99.90
22940;DHT22;11636;52.086;5.090;2023-12-28T07:06:56;10.50;99.90
22940;DHT22;11636;52.086;5.090;2023-12-28T07:09:29;10.50;99.90
22940;DHT22;11636;52.086;5.090;2023-12-28T07:11:56;10.50;99.90
22940;DHT22;11636;52.086;5.090;2023-12-28T07:14:22;10.50;99.90
22940;DHT22;11636;52.086;5.090;2023-12-28T07:16:56;10.50;99.90
22940;DHT22;11636;52.086;5.090;2023-12-28T07:19:23;10.40;99.90
22940;DHT22;11636;52.086;5.090;2023-12-28T07:21:56;10.40;99.90
22940;DHT22;11636;52.086;5.090;2023-12-28T07:24:23;10.30;99.90
22940;DHT22;11636;52.086;5.090;2023-12-28T07:26:50;10.20;99.90
22940;DHT22;11636;52.086;5.090;2023-12-28T07:29:24;10.20;99.90
22940;DHT22;11636;52.086;5.090;2023-12-28T07:31:54;10.20;99.90
22940;DHT22;11636;52.086;5.090;2023-12-28T07:34:21;10.30;99.90
22940;DHT22;11636;52.086;5.090;2023-12-28T07:36:54;10.30;99.90
22940;DHT22;11636;52.086;5.090;2023-12-28T07:39:28;10.30;99.90
22940;DHT22;11636;52.086;5.090;2023-12-28T07:41:55;10.30;99.90
22940;DHT22;11636;52.086;5.090;2023-12-28T07:44:28;10.30;99.90
22940;DHT22;11636;52.086;5.090;2023-12-28T07:46:55;10.30;99.90
22940;DHT22;11636;52.086;5.090;2023-12-28T07:49:22;10.40;99.90
22940;DHT22;11636;52.086;5.090;2023-12-28T07:51:55;10.40;99.90
22940;DHT22;11636;52.086;5.090;2023-12-28T07:54:28;10.40;99.90
22940;DHT22;11636;52.086;5.090;2023-12-28T07:57:01;10.40;99.90
22940;DHT22;11636;52.086;5.090;2023-12-28T07:59:28;10.40;99.90
22940;DHT22;11636;52.086;5.090;2023-12-28T08:01:55;10.40;99.90
22940;DHT22;11636;52.086;5.090;2023-12-28T08:04:29;10.40;99.90
22940;DHT22;11636;52.086;5.090;2023-12-28T08:06:56;10.40;99.90
22940;DHT22;11636;52.086;5.090;2023-12-28T08:09:23;10.40;99.90
22940;DHT22;11636;52.086;5.090;2023-12-28T08:11:56;10.40;99.90
22940;DHT22;11636;52.086;5.090;2023-12-28T08:14:23;10.50;99.90
22940;DHT22;11636;52.086;5.090;2023-12-28T08:16:57;10.50;99.90
22940;DHT22;11636;52.086;5.090;2023-12-28T08:19:30;10.50;99.90
22940;DHT22;11636;52.086;5.090;2023-12-28T08:21:57;10.60;99.90
22940;DHT22;11636;52.086;5.090;2023-12-28T08:24:23;10.60;99.90
22940;DHT22;11636;52.086;5.090;2023-12-28T08:26:57;10.60;99.90
22940;DHT22;11636;52.086;5.090;2023-12-28T08:29:27;10.60;99.90
22940;DHT22;11636;52.086;5.090;2023-12-28T08:32:00;10.60;99.90
22940;DHT22;11636;52.086;5.090;2023-12-28T08:34:27;10.60;99.90
22940;DHT22;11636;52.086;5.090;2023-12-28T08:36:54;10.70;99.90
22940;DHT22;11636;52.086;5.090;2023-12-28T08:39:29;10.60;99.90
22940;DHT22;11636;52.086;5.090;2023-12-28T08:42:02;10.60;99.90
22940;DHT22;11636;52.086;5.090;2023-12-28T08:44:35;10.70;99.90
22940;DHT22;11636;52.086;5.090;2023-12-28T08:47:11;10.70;99.90
22940;DHT22;11636;52.086;5.090;2023-12-28T08:49:37;10.70;99.90
22940;DHT22;11636;52.086;5.090;2023-12-28T08:52:11;10.60;99.90
22940;DHT22;11636;52.086;5.090;2023-12-28T08:54:45;10.70;99.90
22940;DHT22;11636;52.086;5.090;2023-12-28T08:57:12;10.70;99.90
22940;DHT22;11636;52.086;5.090;2023-12-28T09:00:08;10.70;99.90
22940;DHT22;11636;52.086;5.090;2023-12-28T09:02:36;10.70;99.90
22940;DHT22;11636;52.086;5.090;2023-12-28T09:05:09;10.70;99.90
22940;DHT22;11636;52.086;5.090;2023-12-28T09:07:36;10.70;99.90
22940;DHT22;11636;52.086;5.090;2023-12-28T09:10:12;10.70;99.90
22940;DHT22;11636;52.086;5.090;2023-12-28T09:12:45;10.70;99.90
22940;DHT22;11636;52.086;5.090;2023-12-28T09:15:18;10.70;99.90
22940;DHT22;11636;52.086;5.090;2023-12-28T09:17:45;10.80;99.90
22940;DHT22;11636;52.086;5.090;2023-12-28T09:20:19;10.80;99.90
22940;DHT22;11636;52.086;5.090;2023-12-28T09:22:46;10.80;99.90
22940;DHT22;11636;52.086;5.090;2023-12-28T09:25:21;10.80;99.90
22940;DHT22;11636;52.086;5.090;2023-12-28T09:27:54;10.80;99.90
22940;DHT22;11636;52.086;5.090;2023-12-28T09:30:21;10.90;99.90
22940;DHT22;11636;52.086;5.090;2023-12-28T09:32:56;11.00;99.90
22940;DHT22;11636;52.086;5.090;2023-12-28T09:35:29;11.00;99.90
22940;DHT22;11636;52.086;5.090;2023-12-28T09:38:02;11.10;99.90
22940;DHT22;11636;52.086;5.090;2023-12-28T09:40:36;11.20;99.90
22940;DHT22;11636;52.086;5.090;2023-12-28T09:46:07;11.10;99.90
22940;DHT22;11636;52.086;5.090;2023-12-28T09:48:41;11.10;99.90
22940;DHT22;11636;52.086;5.090;2023-12-28T09:51:10;11.10;99.90
22940;DHT22;11636;52.086;5.090;2023-12-28T09:53:44;11.10;99.90
22940;DHT22;11636;52.086;5.090;2023-12-28T09:56:18;11.10;99.90
22940;DHT22;11636;52.086;5.090;2023-12-28T09:58:46;11.10;99.90
22940;DHT22;11636;52.086;5.090;2023-12-28T10:01:22;11.20;99.90
22940;DHT22;11636;52.086;5.090;2023-12-28T10:03:49;11.10;99.90
22940;DHT22;11636;52.086;5.090;2023-12-28T10:06:23;11.00;99.90
22940;DHT22;11636;52.086;5.090;2023-12-28T10:08:56;11.00;99.90
22940;DHT22;11636;52.086;5.090;2023-12-28T10:11:23;10.90;99.90
22940;DHT22;11636;52.086;5.090;2023-12-28T10:13:58;10.90;99.90
22940;DHT22;11636;52.086;5.090;2023-12-28T10:16:25;10.90;99.90
22940;DHT22;11636;52.086;5.090;2023-12-28T10:18:59;10.90;99.90
22940;DHT22;11636;52.086;5.090;2023-12-28T10:21:26;10.90;99.90
22940;DHT22;11636;52.086;5.090;2023-12-28T10:24:02;11.00;99.90
22940;DHT22;11636;52.086;5.090;2023-12-28T10:26:29;11.00;99.90
22940;DHT22;11636;52.086;5.090;2023-12-28T10:29:02;11.00;99.90
22940;DHT22;11636;52.086;5.090;2023-12-28T10:31:36;11.10;99.90
22940;DHT22;11636;52.086;5.090;2023-12-28T10:34:04;11.10;99.90
22940;DHT22;11636;52.086;5.090;2023-12-28T10:36:38;11.20;99.90
22940;DHT22;11636;52.086;5.090;2023-12-28T10:39:09;11.30;99.90
22940;DHT22;11636;52.086;5.090;2023-12-28T10:41:48;11.40;99.90
22940;DHT22;11636;52.086;5.090;2023-12-28T10:44:19;11.40;99.90
22940;DHT22;11636;52.086;5.090;2023-12-28T10:46:57;11.30;99.90
22940;DHT22;11636;52.086;5.090;2023-12-28T10:49:48;11.40;99.90
22940;DHT22;11636;52.086;5.090;2023-12-28T10:52:27;11.30;99.90
22940;DHT22;11636;52.086;5.090;2023-12-28T10:58:12;11.30;99.90
22940;DHT22;11636;52.086;5.090;2023-12-28T11:00:53;11.30;99.90
22940;DHT22;11636;52.086;5.090;2023-12-28T11:03:25;11.30;99.90
22940;DHT22;11636;52.086;5.090;2023-12-28T11:06:02;11.30;99.90
22940;DHT22;11636;52.086;5.090;2023-12-28T11:08:38;11.30;99.90
22940;DHT22;11636;52.086;5.090;2023-12-28T11:11:07;11.30;99.90
22940;DHT22;11636;52.086;5.090;2023-12-28T11:13:42;11.40;99.90
22940;DHT22;11636;52.086;5.090;2023-12-28T11:16:18;11.40;99.90
22940;DHT22;11636;52.086;5.090;2023-12-28T11:18:46;11.40;99.90
22940;DHT22;11636;52.086;5.090;2023-12-28T11:21:21;11.40;99.90
22940;DHT22;11636;52.086;5.090;2023-12-28T11:23:49;11.40;99.90
22940;DHT22;11636;52.086;5.090;2023-12-28T11:26:22;11.50;99.90
22940;DHT22;11636;52.086;5.090;2023-12-28T11:29:02;11.50;99.90
22940;DHT22;11636;52.086;5.090;2023-12-28T11:31:32;11.60;99.90
22940;DHT22;11636;52.086;5.090;2023-12-28T11:34:06;11.60;99.90
22940;DHT22;11636;52.086;5.090;2023-12-28T11:36:46;11.60;99.90
22940;DHT22;11636;52.086;5.090;2023-12-28T11:39:32;11.60;99.90
22940;DHT22;11636;52.086;5.090;2023-12-28T11:42:09;11.50;99.90
22940;DHT22;11636;52.086;5.090;2023-12-28T11:44:44;11.50;99.90
22940;DHT22;11636;52.086;5.090;2023-12-28T11:47:25;11.40;99.90
22940;DHT22;11636;52.086;5.090;2023-12-28T11:50:07;11.40;99.90
22940;DHT22;11636;52.086;5.090;2023-12-28T11:52:40;11.40;99.90
22940;DHT22;11636;52.086;5.090;2023-12-28T11:55:10;11.40;99.90
22940;DHT22;11636;52.086;5.090;2023-12-28T11:57:43;11.40;99.90
22940;DHT22;11636;52.086;5.090;2023-12-28T12:00:10;11.50;99.90
22940;DHT22;11636;52.086;5.090;2023-12-28T12:02:44;11.50;99.90
22940;DHT22;11636;52.086;5.090;2023-12-28T12:05:15;11.50;99.90
22940;DHT22;11636;52.086;5.090;2023-12-28T12:07:51;11.50;99.90
22940;DHT22;11636;52.086;5.090;2023-12-28T12:10:18;11.60;99.90
22940;DHT22;11636;52.086;5.090;2023-12-28T12:12:52;11.70;99.90
22940;DHT22;11636;52.086;5.090;2023-12-28T12:15:27;11.80;99.90
22940;DHT22;11636;52.086;5.090;2023-12-28T12:17:55;11.80;99.90
22940;DHT22;11636;52.086;5.090;2023-12-28T12:20:22;11.80;99.90
22940;DHT22;11636;52.086;5.090;2023-12-28T12:22:59;11.80;99.90
22940;DHT22;11636;52.086;5.090;2023-12-28T12:25:29;11.90;99.90
22940;DHT22;11636;52.086;5.090;2023-12-28T12:28:02;11.90;99.90
22940;DHT22;11636;52.086;5.090;2023-12-28T12:30:30;11.90;99.90
22940;DHT22;11636;52.086;5.090;2023-12-28T12:33:04;11.90;99.90
22940;DHT22;11636;52.086;5.090;2023-12-28T12:35:31;11.80;99.90
22940;DHT22;11636;52.086;5.090;2023-12-28T12:37:58;11.90;99.90
22940;DHT22;11636;52.086;5.090;2023-12-28T12:40:31;11.90;99.90
22940;DHT22;11636;52.086;5.090;2023-12-28T12:43:06;11.80;99.90
22940;DHT22;11636;52.086;5.090;2023-12-28T12:45:35;11.80;99.90
22940;DHT22;11636;52.086;5.090;2023-12-28T12:48:03;11.80;99.90
22940;DHT22;11636;52.086;5.090;2023-12-28T12:50:37;11.80;99.90
22940;DHT22;11636;52.086;5.090;2023-12-28T12:53:08;11.70;99.90
22940;DHT22;11636;52.086;5.090;2023-12-28T12:55:41;11.70;99.90
22940;DHT22;11636;52.086;5.090;2023-12-28T12:58:12;11.70;99.90
22940;DHT22;11636;52.086;5.090;2023-12-28T13:00:46;11.70;99.90
22940;DHT22;11636;52.086;5.090;2023-12-28T13:03:13;11.70;99.90
22940;DHT22;11636;52.086;5.090;2023-12-28T13:05:47;11.70;99.90
22940;DHT22;11636;52.086;5.090;2023-12-28T13:08:14;11.60;99.90
22940;DHT22;11636;52.086;5.090;2023-12-28T13:10:47;11.60;99.90
22940;DHT22;11636;52.086;5.090;2023-12-28T13:13:22;11.60;99.90
22940;DHT22;11636;52.086;5.090;2023-12-28T13:15:49;11.50;99.90
22940;DHT22;11636;52.086;5.090;2023-12-28T13:18:22;11.50;99.90
22940;DHT22;11636;52.086;5.090;2023-12-28T13:20:49;11.50;99.90
22940;DHT22;11636;52.086;5.090;2023-12-28T13:23:16;11.50;99.90
22940;DHT22;11636;52.086;5.090;2023-12-28T13:25:49;11.50;99.90
22940;DHT22;11636;52.086;5.090;2023-12-28T13:28:17;11.50;99.90
22940;DHT22;11636;52.086;5.090;2023-12-28T13:30:51;11.50;99.90
22940;DHT22;11636;52.086;5.090;2023-12-28T13:33:22;11.50;99.90
22940;DHT22;11636;52.086;5.090;2023-12-28T13:35:57;11.50;99.90
22940;DHT22;11636;52.086;5.090;2023-12-28T13:38:38;11.50;99.90
22940;DHT22;11636;52.086;5.090;2023-12-28T13:41:05;11.40;99.90
22940;DHT22;11636;52.086;5.090;2023-12-28T13:43:38;11.40;99.90
22940;DHT22;11636;52.086;5.090;2023-12-28T13:46:11;11.30;99.90
22940;DHT22;11636;52.086;5.090;2023-12-28T13:48:45;11.30;99.90
22940;DHT22;11636;52.086;5.090;2023-12-28T13:51:19;11.30;99.90
22940;DHT22;11636;52.086;5.090;2023-12-28T13:53:45;11.30;99.90
22940;DHT22;11636;52.086;5.090;2023-12-28T13:56:18;11.30;99.90
22940;DHT22;11636;52.086;5.090;2023-12-28T13:58:45;11.20;99.90
22940;DHT22;11636;52.086;5.090;2023-12-28T14:01:12;11.20;99.90
22940;DHT22;11636;52.086;5.090;2023-12-28T14:03:46;11.20;99.90
22940;DHT22;11636;52.086;5.090;2023-12-28T14:06:26;11.20;99.90
22940;DHT22;11636;52.086;5.090;2023-12-28T14:08:54;11.10;99.90
22940;DHT22;11636;52.086;5.090;2023-12-28T14:11:20;11.20;99.90
22940;DHT22;11636;52.086;5.090;2023-12-28T14:13:53;11.20;99.90
22940;DHT22;11636;52.086;5.090;2023-12-28T14:16:20;11.10;99.90
22940;DHT22;11636;52.086;5.090;2023-12-28T14:18:54;11.10;99.90
22940;DHT22;11636;52.086;5.090;2023-12-28T14:21:28;11.00;99.90
22940;DHT22;11636;52.086;5.090;2023-12-28T14:23:55;11.00;99.90
22940;DHT22;11636;52.086;5.090;2023-12-28T14:26:22;10.90;99.90
22940;DHT22;11636;52.086;5.090;2023-12-28T14:28:56;10.70;99.90
22940;DHT22;11636;52.086;5.090;2023-12-28T14:31:23;10.50;99.90
22940;DHT22;11636;52.086;5.090;2023-12-28T14:33:56;10.40;99.90
22940;DHT22;11636;52.086;5.090;2023-12-28T14:36:36;10.30;99.90
22940;DHT22;11636;52.086;5.090;2023-12-28T14:39:10;10.30;99.90
22940;DHT22;11636;52.086;5.090;2023-12-28T14:41:45;10.30;99.90
22940;DHT22;11636;52.086;5.090;2023-12-28T14:44:18;10.30;99.90
22940;DHT22;11636;52.086;5.090;2023-12-28T14:46:52;10.40;99.90
22940;DHT22;11636;52.086;5.090;2023-12-28T14:49:26;10.50;99.90
22940;DHT22;11636;52.086;5.090;2023-12-28T14:52:00;10.60;99.90
22940;DHT22;11636;52.086;5.090;2023-12-28T14:54:27;10.60;99.90
22940;DHT22;11636;52.086;5.090;2023-12-28T14:56:59;10.70;99.90
22940;DHT22;11636;52.086;5.090;2023-12-28T14:59:26;10.70;99.90
22940;DHT22;11636;52.086;5.090;2023-12-28T15:01:59;10.70;99.90
22940;DHT22;11636;52.086;5.090;2023-12-28T15:04:26;10.70;99.90
22940;DHT22;11636;52.086;5.090;2023-12-28T15:06:53;10.80;99.90
22940;DHT22;11636;52.086;5.090;2023-12-28T15:09:27;10.80;99.90
22940;DHT22;11636;52.086;5.090;2023-12-28T15:11:54;10.80;99.90
22940;DHT22;11636;52.086;5.090;2023-12-28T15:14:28;10.90;99.90
22940;DHT22;11636;52.086;5.090;2023-12-28T15:17:04;10.90;99.90
22940;DHT22;11636;52.086;5.090;2023-12-28T15:19:38;10.90;99.90
22940;DHT22;11636;52.086;5.090;2023-12-28T15:22:05;10.90;99.90
22940;DHT22;11636;52.086;5.090;2023-12-28T15:24:39;10.90;99.90
22940;DHT22;11636;52.086;5.090;2023-12-28T15:27:06;10.90;99.90
22940;DHT22;11636;52.086;5.090;2023-12-28T15:29:40;10.90;99.90
22940;DHT22;11636;52.086;5.090;2023-12-28T15:32:06;11.00;99.90
22940;DHT22;11636;52.086;5.090;2023-12-28T15:34:33;10.90;99.90
22940;DHT22;11636;52.086;5.090;2023-12-28T15:37:07;10.90;99.90
22940;DHT22;11636;52.086;5.090;2023-12-28T15:39:35;10.90;99.90
22940;DHT22;11636;52.086;5.090;2023-12-28T15:42:09;10.90;99.90
22940;DHT22;11636;52.086;5.090;2023-12-28T15:44:35;10.90;99.90
22940;DHT22;11636;52.086;5.090;2023-12-28T15:47:09;11.00;99.90
22940;DHT22;11636;52.086;5.090;2023-12-28T15:49:35;10.90;99.90
22940;DHT22;11636;52.086;5.090;2023-12-28T15:52:03;10.90;99.90
22940;DHT22;11636;52.086;5.090;2023-12-28T15:54:36;10.90;99.90
22940;DHT22;11636;52.086;5.090;2023-12-28T15:57:03;10.90;99.90
22940;DHT22;11636;52.086;5.090;2023-12-28T15:59:37;10.90;99.90
22940;DHT22;11636;52.086;5.090;2023-12-28T16:02:03;10.80;99.90
22940;DHT22;11636;52.086;5.090;2023-12-28T16:04:37;10.80;99.90